ADDS METAR Data INFO
IDs: Format: Raw Decoded Include TAF

Data at: 0632 UTC 15 Dec 2017

KDIJ 150556Z AUTO 10SM CLR M12/M14 RMK AO2 SLPNO 6//// T11221139 11083 21133 TSNO $
KDIJ 150456Z AUTO 12004KT 10SM CLR M12/M14 A3037 RMK AO2 SLP349 T11221139
KDIJ 150356Z AUTO 15005KT 10SM CLR M13/M14 A3038 RMK AO2 SLP380 T11281144
KDIJ 150256Z AUTO 00000KT 10SM CLR M12/M14 A3038 RMK AO2 SLP383 6//// T11221139 53006
KDIJ 150156Z AUTO 12003KT 10SM CLR M11/M13 A3036 RMK AO2 SLP361 T11111128
KDIJ 150056Z AUTO 00000KT 10SM CLR M09/M11 A3036 RMK AO2 SLP351 T10891106
KDIJ 142356Z AUTO 07008KT 10SM CLR M08/M11 A3036 RMK AO2 SLP347 6//// T10831111 10017 21083 56008
KDIJ 142256Z AUTO 07004KT 10SM CLR M03/M08 A3036 RMK AO2 SLP334 T10281083
KDIJ 142156Z AUTO 00000KT 10SM CLR M01/M08 A3037 RMK AO2 SLP328 T10061078
KDIJ 142056Z AUTO 10SM CLR M01/M08 A3039 RMK AO2 SLP333 6//// T10061078 56015 $
KDIJ 141956Z AUTO 12003KT 10SM CLR M02/M07 A3040 RMK AO2 SLP340 T10171072
KDIJ 141856Z AUTO 16004KT 10SM CLR 00/M07 A3041 RMK AO2 SLP339 T00001067
KDIJ 141756Z AUTO 00000KT 10SM CLR 01/M05 A3044 RMK AO2 SLP346 6//// T00111050 10011 21133
KDIJ 141656Z AUTO 00000KT 10SM CLR M01/M04 RMK AO2 SLPNO T10111039 $
KDIJ 141556Z AUTO 13004KT 10SM FEW001 M11/M13 A3043 RMK AO2 SLP376 T11111128
KDIJ 141541Z AUTO 14004KT 4SM BR SCT001 M12/M13 A3043 RMK AO2 TSNO
KDIJ 141539Z AUTO 00000KT 1 1/4SM BR SCT001 M12/M13 A3043 RMK AO2 TSNO
KDIJ 141537Z AUTO 00000KT 3/4SM BR VV001 M12/M13 A3043 RMK AO2 TSNO
KDIJ 141523Z AUTO 20003KT 1/4SM FZFG VV001 M13/M14 A3043 RMK AO2
KDIJ 141520Z AUTO 3/4SM BR VV001 M13/M14 A3043 RMK AO2
KDIJ 141512Z AUTO 14003KT 5SM BR FEW002 M13/M14 A3042 RMK AO2
KDIJ 141456Z AUTO 11004KT 10SM BKN002 M13/M15 A3042 RMK AO2 SLP375 6//// T11281150 TSNO
KDIJ 141441Z AUTO 06003KT 3SM BR OVC002 M09/M11 A3041 RMK AO2
KDIJ 141439Z AUTO 05003KT 1 1/2SM BR OVC002 M09/M11 A3041 RMK AO2
KDIJ 141437Z AUTO 06003KT 3/4SM BR OVC002 M09/M11 A3042 RMK AO2
KDIJ 141400Z AUTO 10003KT 3/4SM BR OVC002 M08/M08 A3041 RMK AO2
KDIJ 141356Z AUTO 11003KT 1 3/4SM BR OVC002 M08/M08 A3041 RMK AO2 SLP355 T10781083
KDIJ 141304Z AUTO 00000KT 3SM BR OVC002 M07/M08 A3040 RMK AO2
KDIJ 141256Z AUTO 1 3/4SM BR OVC002 M07/M08 RMK AO2 SLPNO T10721078 $
KDIJ 141220Z AUTO 15003KT 10SM OVC002 M07/M08 A3040 RMK AO2
KDIJ 141205Z AUTO 13003KT 2SM BR OVC002 M07/M07 A3040 RMK AO2
KDIJ 141159Z AUTO 00000KT 1SM BR OVC002 M07/M07 A3040 RMK AO2
KDIJ 141156Z AUTO 1/2SM FZFG OVC002 M07/M07 RMK AO2 SLPNO 6//// 7//// T10671072 11050 21072 $
KDIJ 141056Z AUTO 14003KT 1/4SM FZFG OVC002 M07/M08 A3039 RMK AO2 SLP342 T10671078
KDIJ 141050Z AUTO 12004KT 1/2SM FZFG OVC002 M07/M07 A3039 RMK AO2
KDIJ 141010Z AUTO 14004KT 1/4SM FZFG OVC002 M06/M07 A3038 RMK AO2
KDIJ 140956Z AUTO 00000KT 3/4SM BR OVC002 M06/M07 A3038 RMK AO2 SLP329 T10611067
KDIJ 140942Z AUTO 00000KT 1/2SM FZFG OVC002 M06/M07 A3038 RMK AO2
KDIJ 140939Z AUTO 00000KT 1SM BR OVC002 M06/M07 RMK AO2 $
KDIJ 140928Z AUTO 00000KT 2 1/2SM BR OVC002 M06/M07 A3038 RMK AO2 VIS 3/4V5
KDIJ 140922Z AUTO 07003KT 1SM BR OVC002 M06/M06 A3038 RMK AO2
KDIJ 140910Z AUTO 00000KT 1/2SM FZFG OVC002 M06/M06 A3037 RMK AO2
KDIJ 140856Z AUTO 00000KT 3/4SM BR OVC002 M06/M06 A3037 RMK AO2 VIS 1/2V2 SLP328 6//// T10561061 53007
KDIJ 140853Z AUTO 32003KT 1SM BR OVC002 M06/M06 A3036 RMK AO2
KDIJ 140844Z AUTO 00000KT 2SM BR OVC004 M06/M06 A3035 RMK AO2
KDIJ 140805Z AUTO 3SM BR OVC004 M06/M06 A3034 RMK AO2
KDIJ 140756Z AUTO 00000KT 1 1/2SM BR OVC004 M06/M06 A3034 RMK AO2 SLP315 T10561061
KDIJ 140736Z AUTO 15003KT 1 1/4SM BR OVC004 M06/M07 A3033 RMK AO2 CIG 002V007 TSNO
KDIJ 140724Z AUTO 13004KT 3/4SM BR OVC004 M06/M07 A3033 RMK AO2 CIG 002V007
KDIJ 140720Z AUTO 13005KT 1 3/4SM BR OVC004 M06/M07 A3033 RMK AO2 CIG 002V007
KDIJ 140714Z AUTO 11003KT 8SM OVC004 M06/M07 A3034 RMK AO2 CIG 003V007
KDIJ 140656Z AUTO 00000KT 8SM OVC002 M05/M06 A3033 RMK AO2 SLP317 T10501056 400171061
KDIJ 140619Z AUTO 00000KT 3SM BR OVC002 M05/M06 A3033 RMK AO2
KDIJ 140605Z AUTO 00000KT 1 3/4SM BR OVC002 M05/M06 RMK AO2 $
KDIJ 140556Z AUTO 04003KT 4SM BR OVC002 M05/M06 A3034 RMK AO2 SLP319 6//// T10501056 11028 21061 51017
KDIJ 140509Z AUTO 00000KT 3SM BR OVC002 M05/M06 A3033 RMK AO2
KDIJ 140504Z AUTO 1 1/4SM BR OVC002 M05/M06 RMK AO2 $
KDIJ 140456Z AUTO 00000KT 3/4SM BR OVC002 M05/M06 A3033 RMK AO2 SNE22 SLP317 P0000 T10501056
KDIJ 140451Z AUTO 00000KT 3/4SM BR OVC002 M05/M06 A3032 RMK AO2 SNE22 P0000
KDIJ 140445Z AUTO 28003KT 1 3/4SM BR OVC002 M05/M06 A3032 RMK AO2 VIS 3/4V5 SNE22 P0000
KDIJ 140429Z AUTO 00000KT 6SM BR BKN002 OVC060 M06/M07 A3031 RMK AO2 SNE22 P0000
KDIJ 140356Z AUTO 33004KT 8SM -SN FEW004 BKN045 OVC060 M04/M05 A3031 RMK AO2 SLP312 P0000 T10441050
KDIJ 140310Z AUTO 33008KT 9SM -SN FEW004 SCT027 OVC049 M04/M05 A3030 RMK AO2 P0000
KDIJ 140256Z AUTO 32004KT 3SM -SN BR SCT021 BKN028 OVC047 M04/M05 A3028 RMK AO2 SLP303 P0001 60001 T10391050
KDIJ 140248Z AUTO 2 1/2SM -SN BR FEW004 BKN023 OVC030 M04/M05 A3028 RMK AO2 VIS 2V4 P0001
KDIJ 140231Z AUTO 33009KT 2SM -SN BR BKN004 BKN023 OVC028 M04/M05 A3028 RMK AO2 P0000
KDIJ 140156Z AUTO 33008KT 4SM -SN BR OVC004 M04/M05 RMK AO2 SLPNO P0000 T10391050 $
KDIJ 140110Z AUTO 34005KT 4SM -SN BR BKN006 OVC013 M04/M04 A3023 RMK AO2 P0000
KDIJ 140056Z AUTO 33005KT 2 1/2SM -SN BR BKN006 OVC013 M03/M04 A3023 RMK AO2 CIG 004V010 SLP279 P0000 T10331044
KDIJ 140041Z AUTO 35003KT 1 1/2SM -SN BR SCT008 BKN013 OVC039 M03/M04 A3023 RMK AO2 P0000
KDIJ 140033Z AUTO 35004KT 2 1/2SM -SN BR BKN008 BKN015 OVC039 M03/M04 A3022 RMK AO2 CIG 005V012 P0000
KDIJ 140024Z AUTO 34004KT 3SM -SN BR BKN010 BKN015 OVC039 M03/M04 A3022 RMK AO2 CIG 007V011 P0000
KDIJ 140016Z AUTO 1 1/4SM -SN BR BKN012 OVC039 M03/M04 RMK AO2 P0000 $
KDIJ 132356Z AUTO 36003KT 2SM -SN BR OVC009 M03/M04 A3022 RMK AO2 SLP275 P0000 6//// T10281044 10017 21033
KDIJ 132347Z AUTO 01003KT 2SM -SN BR BKN009 BKN017 OVC043 M03/M04 A3021 RMK AO2 VIS 1 1/4V3 CIG 007V013 P0000
KDIJ 132337Z AUTO 00000KT 1 1/4SM -SN BR FEW007 BKN023 OVC041 M02/M04 A3021 RMK AO2 P0000
KDIJ 132317Z AUTO 00000KT 1 3/4SM -SN BR BKN035 OVC043 M02/M04 A3021 RMK AO2 VIS 1 1/4V4 P0000
KDIJ 132256Z AUTO 34006KT 6SM -SN BR OVC037 M02/M04 A3020 RMK AO2 UPB39E44SNB44 SLP271 T10221044
KDIJ 132156Z AUTO 00000KT 10SM SCT041 OVC050 02/M04 A3019 RMK AO2 UPB12E14SNE12 SLP255 P0001 T00171039
KDIJ 132056Z AUTO 00000KT 4SM -SN FEW006 BKN031 OVC060 M01/M04 RMK AO2 SLPNO P0000 60003 T10111039 $
KDIJ 132054Z AUTO 21003KT 3SM -SN FEW006 BKN033 OVC060 M01/M04 A3021 RMK AO2 P0000
KDIJ 132051Z AUTO 20004KT 2SM -SN FEW006 BKN028 OVC060 M01/M04 A3021 RMK AO2 P0000
KDIJ 132029Z AUTO 23004KT 1 3/4SM -SN BKN006 OVC026 M02/M04 A3023 RMK AO2 CIG 004V008 P0000
KDIJ 132016Z AUTO 25004KT 3SM -SN BKN006 OVC029 M01/M04 A3024 RMK AO2 CIG 004V008 P0000
KDIJ 132010Z AUTO 25004KT 1 3/4SM -SN SCT006 OVC029 M01/M04 RMK AO2 P0000 $
KDIJ 131956Z AUTO 25004KT 1 1/2SM -SN FEW016 OVC029 M01/M03 A3025 RMK AO2 SLP285 P0003 T10061033
KDIJ 131939Z AUTO 24003KT 1SM -SN BR SCT011 BKN017 OVC027 M01/M03 A3026 RMK AO2 P0001
KDIJ 131937Z AUTO 24003KT 3/4SM -SN BR SCT011 BKN017 OVC027 00/M02 A3026 RMK AO2 P0001
KDIJ 131856Z AUTO 34003KT 1/2SM SN FZFG OVC013 M03/M04 A3030 RMK AO2 SLP307 P0000 T10281039
KDIJ 131838Z AUTO 03004KT 3/4SM -SN BR BKN013 BKN023 OVC029 M03/M04 A3031 RMK AO2 P0000